Flight Track Log - Related Links

Times and Time Zones

All times are in EDT time to prevent confusion due to time zone crossing. See the N21EK flight status page for this flight to view local times or setup timezone preferences in your user account.

Time Position Orientation Groundspeed Altitude Reporting Facility
EDT Latitude Longitude Course Direction KTS MPH feet Rate Location/Type
Fri 11:40:43 AM 32.8325 -80.0767 235° Southwest 158 182 3,400  Level Jacksonville Center
Fri 11:41:43 AM 32.7975 -80.1025 212° Southwest 164 189 5,900 2,300 Climbing Jacksonville Center
Fri 11:42:43 AM 32.7586 -80.1333 214° Southwest 164 189 8,000 1,900 Climbing Jacksonville Center
Fri 11:43:43 AM 32.7197 -80.1692 218° Southwest 169 194 9,700 1,600 Climbing Jacksonville Center
Fri 11:44:43 AM 32.6767 -80.2025 213° Southwest 179 206 11,200 1,450 Climbing Jacksonville Center
Fri 11:45:00 AM 32.5982 -80.4753 235° Southwest  Level FlightAware Approximate
Fri 11:45:43 AM 32.6336 -80.2383 215° Southwest 184 212 12,600  Level Jacksonville Center
Fri 11:46:00 AM 32.5528 -80.5510 235° Southwest  Level FlightAware Approximate
Fri 11:46:43 AM 32.5861 -80.2742 212° Southwest 190 219 14,000  Level Jacksonville Center
Fri 11:47:43 AM 32.5453 -80.3172 222° Southwest 195 224 15,400 1,350 Climbing Jacksonville Center
Fri 11:48:43 AM 32.5047 -80.3678 226° Southwest 201 231 16,700 1,250 Climbing Jacksonville Center
Fri 11:49:43 AM 32.4617 -80.4156 223° Southwest 214 246 17,900 1,100 Climbing Jacksonville Center
Fri 11:50:43 AM 32.4167 -80.4661 223° Southwest 214 246 18,900 1,000 Climbing Jacksonville Center
Fri 11:51:43 AM 32.3739 -80.5139 223° Southwest 224 258 19,900 1,000 Climbing Jacksonville Center
Fri 11:52:43 AM 32.3289 -80.5667 225° Southwest 224 258 20,900 1,050 Climbing Jacksonville Center
Fri 11:53:43 AM 32.2778 -80.6197 221° Southwest 235 270 22,000 1,100 Climbing Jacksonville Center
Fri 11:54:43 AM 32.2306 -80.6725 223° Southwest 241 277 23,100 1,050 Climbing Jacksonville Center
Fri 11:55:43 AM 32.1814 -80.7275 223° Southwest 241 277 24,100 1,000 Climbing Jacksonville Center
Fri 11:56:43 AM 32.1406 -80.7778 226° Southwest 236 272 25,100 1,050 Climbing Jacksonville Center
Fri 11:57:43 AM 32.0831 -80.8378 221° Southwest 247 284 26,200 950 Climbing Jacksonville Center
Fri 11:58:43 AM 32.0317 -80.8953 223° Southwest 254 292 27,000 800 Climbing Jacksonville Center
Fri 11:59:43 AM 31.9847 -80.9478 223° Southwest 265 305 27,800 850 Climbing Jacksonville Center
Fri 12:00:43 PM 31.9250 -81.0175 225° Southwest 265 305 28,700 850 Climbing Jacksonville Center
Fri 12:01:43 PM 31.8758 -81.0725 224° Southwest 265 305 29,500 650 Climbing Jacksonville Center
Fri 12:02:43 PM 31.8161 -81.1397 224° Southwest 278 320 30,000 250 Climbing Jacksonville Center
Fri 12:03:43 PM 31.7567 -81.2092 225° Southwest 295 339 30,000 100 Level Jacksonville Center
Fri 12:04:43 PM 31.6989 -81.2711 222° Southwest 302 348 30,200 950 Climbing Jacksonville Center
Fri 12:05:43 PM 31.6331 -81.3431 223° Southwest 309 356 31,900 1,200 Climbing Jacksonville Center
Fri 12:06:43 PM 31.5794 -81.4025 223° Southwest 283 326 32,600 750 Climbing Jacksonville Center
Fri 12:07:43 PM 31.5319 -81.4544 223° Southwest 269 310 33,400 700 Climbing Jacksonville Center
Fri 12:08:43 PM 31.4700 -81.5211 223° Southwest 269 310 34,000 650 Climbing Jacksonville Center
Fri 12:09:43 PM 31.4186 -81.5731 221° Southwest 274 315 34,700 700 Climbing Jacksonville Center
Fri 12:10:43 PM 31.3586 -81.6419 224° Southwest 269 310 35,400 650 Climbing Jacksonville Center
Fri 12:11:43 PM 31.3092 -81.6986 224° Southwest 269 310 36,000 650 Climbing Jacksonville Center
Fri 12:12:43 PM 31.2553 -81.7578 223° Southwest 274 315 36,700 600 Climbing Jacksonville Center
Fri 12:13:43 PM 31.1825 -81.7853 198° South 266 306 37,200 600 Climbing Jacksonville Center
Fri 12:14:43 PM 31.0969 -81.8056 191° South 295 339 37,900 400 Climbing Jacksonville Center
Fri 12:15:43 PM 31.0200 -81.8333 197° South 290 334 38,000 50 Climbing Jacksonville Center
Fri 12:16:43 PM 30.9389 -81.8608 196° South 296 341 38,000  Level Jacksonville Center
Fri 12:17:43 PM 30.8533 -81.8908 197° South 309 356 38,000  Level Jacksonville Center
Fri 12:18:43 PM 30.7661 -81.9206 196° South 320 368 38,000  Level Jacksonville Center
Fri 12:19:43 PM 30.6786 -81.9506 196° South 326 375 38,000  Level Jacksonville Center
Fri 12:20:43 PM 30.5889 -81.9803 196° South 331 381 38,000  Level Jacksonville Center
Fri 12:21:43 PM 30.4972 -82.0031 192° South 337 388 38,000  Level Jacksonville Center
Fri 12:22:43 PM 30.4056 -82.0328 196° South 337 388 38,000  Level Jacksonville Center
Fri 12:23:43 PM 30.3139 -82.0625 196° South 337 388 38,000 -50 Level Jacksonville Center
Fri 12:24:43 PM 30.2222 -82.0897 194° South 337 388 37,900 -400 Descending Jacksonville Center
Fri 12:25:43 PM 30.1242 -82.0881 179° South 337 388 37,200 -1,200 Descending Jacksonville Center
Fri 12:26:43 PM 30.0217 -82.0842 178° South 349 402 35,500 -1,750 Descending Jacksonville Center
Fri 12:27:43 PM 29.9217 -82.0850 180° South 359 413 33,700 -1,800 Descending Jacksonville Center
Fri 12:28:43 PM 29.8233 -82.0833 179° South 359 413 31,900 -1,950 Descending Jacksonville Center
Fri 12:29:43 PM 29.7211 -82.0722 175° South 365 420 29,800 -2,050 Descending Jacksonville Center
Fri 12:30:43 PM 29.6144 -82.0683 178° South 370 426 27,800 -1,850 Descending Jacksonville Center
Fri 12:31:43 PM 29.5247 -82.0667 179° South 370 426 26,100 -1,700 Descending Jacksonville Center
Fri 12:32:43 PM 29.4267 -82.0653 179° South 364 419 24,400 -1,650 Descending Jacksonville Center
Fri 12:33:43 PM 29.3306 -82.0661 180° South 359 413 22,800 -1,200 Descending Jacksonville Center
Fri 12:34:43 PM 29.2392 -82.1050 200° South 354 407 22,000 -600 Descending Jacksonville Center
Fri 12:35:43 PM 29.1517 -82.1389 199° South 344 396 21,600 -750 Descending Jacksonville Center
Fri 12:36:43 PM 29.0578 -82.1539 188° South 339 390 20,500 -1,450 Descending Jacksonville Center
Fri 12:37:43 PM 28.9636 -82.1378 171° South 332 382 18,700 -2,150 Descending Jacksonville Center
Fri 12:38:43 PM 28.8717 -82.1244 173° South 337 388 16,200 -2,023 Descending Jacksonville Center
Fri 12:40:38 PM 28.7000 -82.1000 173° South 297 342 12,800 -1,432 Descending Tampa TRACON
Fri 12:41:39 PM 28.6167 -82.1000 180° South 296 341 12,000 -378 Descending Tampa TRACON
Fri 12:42:45 PM 28.5167 -82.1000 180° South 291 335 12,000  Level Tampa TRACON
Fri 12:43:45 PM 28.4500 -82.1000 180° South 291 335 12,000  Level Tampa TRACON
Fri 12:44:46 PM 28.3667 -82.1000 180° South 291 335 12,000  Level Tampa TRACON
Fri 12:45:46 PM 28.2833 -82.1000 180° South 294 338 12,000  Level Tampa TRACON
Fri 12:46:44 PM 28.2000 -82.1000 180° South 296 341 12,000 -161 Level Tampa TRACON
Fri 12:47:38 PM 28.1167 -82.1167 190° South 292 336 11,700 -1,000 Descending Tampa TRACON
Fri 12:48:38 PM 28.0333 -82.1333 190° South 298 343 10,100 -1,736 Descending Tampa TRACON
Fri 12:49:39 PM 27.9667 -82.1500 192° South 268 308 8,200 -1,795 Descending Tampa TRACON
Fri 12:50:45 PM 27.8833 -82.1833 199° South 267 307 6,300 -1,039 Descending Tampa TRACON
Fri 12:51:46 PM 27.8333 -82.2167 211° Southwest 244 281 6,000 -149 Descending Tampa TRACON
Fri 12:52:46 PM 27.7833 -82.2667 222° Southwest 215 247 6,000  Level Tampa TRACON
Fri 12:53:41 PM 27.7500 -82.3000 222° Southwest 200 230 6,000  Level Tampa TRACON
Fri 12:54:38 PM 27.7000 -82.3333 211° Southwest 191 220 6,000  Level Tampa TRACON
Fri 12:55:33 PM 27.6667 -82.3667 222° Southwest 186 214 6,000 -313 Level Tampa TRACON
Fri 12:56:33 PM 27.6333 -82.4167 233° Southwest 214 246 5,400 -908 Descending Tampa TRACON
Fri 12:57:32 PM 27.6000 -82.4833 241° Southwest 230 265 4,200 -1,339 Descending Tampa TRACON
Fri 12:58:34 PM 27.5667 -82.5333 233° Southwest 201 231 2,700 -1,385 Descending Tampa TRACON
Fri 12:59:29 PM 27.5167 -82.5667 211° Southwest 192 221 1,500 -771 Descending Tampa TRACON
Fri 01:00:23 PM 27.4833 -82.5833 204° Southwest 168 193 1,300 -238 Descending Tampa TRACON
Fri 01:01:35 PM 27.4500 -82.6000 204° Southwest 119 137 1,000 -348 Descending Tampa TRACON
Fri 01:02:41 PM 27.4167 -82.5833 156° South 99 114 500 -455 Descending Tampa TRACON
Fri 01:04:00 PM 27.3954 -82.5544 222° Southwest  Level Estimated
Fri 01:11:00 PM 27.3954 -82.5544 222° Southwest  Level Estimated
Fri 01:12:00 PM 27.3954 -82.5544 222° Southwest  Level Estimated

Login

Don't have an account? Register now (free) for customized features, flight alerts, and more!